Time,TemperatureF,DewpointF,PressureIn,WindDirection,WindDirectionDegrees,WindSpeedMPH,WindSpeedGustMPH,Humidity,HourlyPrecipIn,Conditions,Clouds,dailyrainin,SoftwareType,DateUTC
2013-07-12 00:00:00,76.7,74.8,29.91,South,189,0.0,18.0,94,0.00,,,0.00,Wunderground v.1.15,2013-07-12 04:00:00,
2013-07-12 00:05:00,76.7,74.8,29.92,South,189,0.0,18.0,94,0.00,,,0.00,Wunderground v.1.15,2013-07-12 04:05:00,
2013-07-12 00:10:00,76.7,74.8,29.92,South,188,0.0,18.0,94,0.00,,,0.00,Wunderground v.1.15,2013-07-12 04:10:00,
2013-07-12 00:15:00,76.6,75.1,29.93,South,190,0.0,18.0,95,0.00,,,0.00,Wunderground v.1.15,2013-07-12 04:15:00,
2013-07-12 00:20:00,76.0,71.8,29.93,WNW,296,0.0,18.0,87,0.00,,,0.00,Wunderground v.1.15,2013-07-12 04:20:00,
2013-07-12 00:25:00,75.5,70.3,29.93,WSW,241,1.0,18.0,84,0.00,,,0.00,Wunderground v.1.15,2013-07-12 04:25:00,
2013-07-12 00:30:00,74.0,69.9,29.94,NW,308,1.0,18.0,87,2.29,,,0.06,Wunderground v.1.15,2013-07-12 04:30:00,
2013-07-12 00:40:00,70.1,67.3,29.93,West,277,3.0,3.0,91,0.32,,,0.19,Wunderground v.1.15,2013-07-12 04:40:00,
2013-07-12 00:45:00,69.3,67.5,29.93,West,277,1.0,18.0,94,0.12,,,0.20,Wunderground v.1.15,2013-07-12 04:45:00,
2013-07-12 00:50:00,68.9,68.0,29.93,WNW,292,1.0,18.0,97,1.02,,,0.29,Wunderground v.1.15,2013-07-12 04:50:00,
2013-07-12 00:55:00,68.9,68.3,29.93,WNW,293,1.0,18.0,98,0.60,,,0.35,Wunderground v.1.15,2013-07-12 04:55:00,
2013-07-12 01:05:00,68.2,67.0,29.93,NW,305,3.0,18.0,96,0.66,,,0.51,Wunderground v.1.15,2013-07-12 05:05:00,
2013-07-12 01:10:00,68.1,67.2,29.93,WNW,299,2.0,2.0,97,0.69,,,0.53,Wunderground v.1.15,2013-07-12 05:10:00,
2013-07-12 01:15:00,68.1,67.5,29.94,WNW,303,2.0,3.0,98,0.35,,,0.59,Wunderground v.1.15,2013-07-12 05:15:00,
2013-07-12 01:20:00,68.1,67.8,29.94,WNW,302,2.0,18.0,99,1.45,,,0.64,Wunderground v.1.15,2013-07-12 05:20:00,
2013-07-12 01:25:00,68.0,67.7,29.93,WNW,302,2.0,18.0,99,0.79,,,0.70,Wunderground v.1.15,2013-07-12 05:25:00,
2013-07-12 01:35:00,67.8,67.5,29.93,WNW,302,1.0,18.0,99,0.50,,,0.78,Wunderground v.1.15,2013-07-12 05:35:00,
2013-07-12 01:40:00,67.7,67.4,29.93,WNW,302,0.0,18.0,99,0.22,,,0.79,Wunderground v.1.15,2013-07-12 05:40:00,
2013-07-12 01:45:00,67.6,67.3,29.93,WNW,302,1.0,18.0,99,0.20,,,0.81,Wunderground v.1.15,2013-07-12 05:45:00,
2013-07-12 01:50:00,67.5,67.2,29.93,WNW,302,1.0,1.0,99,0.10,,,0.82,Wunderground v.1.15,2013-07-12 05:50:00,
2013-07-12 02:00:00,67.4,67.1,29.93,WNW,302,0.0,18.0,99,0.05,,,0.83,Wunderground v.1.15,2013-07-12 06:00:00,
2013-07-12 02:05:00,67.6,67.6,29.93,WNW,302,1.0,18.0,100,0.13,,,0.84,Wunderground v.1.15,2013-07-12 06:05:00,
2013-07-12 02:10:00,68.0,68.0,29.93,WNW,302,1.0,1.0,100,0.19,,,0.85,Wunderground v.1.15,2013-07-12 06:10:00,
2013-07-12 02:15:00,68.4,68.4,29.92,WNW,302,1.0,3.0,100,0.42,,,0.88,Wunderground v.1.15,2013-07-12 06:15:00,
2013-07-12 02:20:00,68.7,68.7,29.92,WNW,300,3.0,3.0,100,0.22,,,0.90,Wunderground v.1.15,2013-07-12 06:20:00,
2013-07-12 02:30:00,69.4,69.4,29.92,WNW,296,3.0,18.0,100,0.09,,,0.91,Wunderground v.1.15,2013-07-12 06:30:00,
2013-07-12 02:35:00,69.3,69.3,29.93,SW,225,4.0,18.0,100,0.16,,,0.92,Wunderground v.1.15,2013-07-12 06:35:00,
2013-07-12 02:40:00,69.3,69.3,29.95,WNW,300,4.0,4.0,100,0.28,,,0.95,Wunderground v.1.15,2013-07-12 06:40:00,
2013-07-12 02:45:00,69.2,69.2,29.95,WNW,300,2.0,18.0,100,1.76,,,1.01,Wunderground v.1.15,2013-07-12 06:45:00,
2013-07-12 02:50:00,69.2,69.2,29.94,WNW,301,1.0,18.0,100,2.41,,,1.18,Wunderground v.1.15,2013-07-12 06:50:00,
2013-07-12 03:00:00,69.0,69.0,29.93,WNW,299,2.0,2.0,100,0.31,,,1.33,Wunderground v.1.15,2013-07-12 07:00:00,
2013-07-12 03:05:00,68.7,68.7,29.94,NNW,329,3.0,4.0,100,0.26,,,1.36,Wunderground v.1.15,2013-07-12 07:05:00,
2013-07-12 03:10:00,68.6,68.6,29.93,WNW,303,3.0,18.0,100,2.58,,,1.43,Wunderground v.1.15,2013-07-12 07:10:00,
2013-07-12 03:15:00,68.2,68.2,29.92,WNW,286,5.0,18.0,100,2.03,,,1.61,Wunderground v.1.15,2013-07-12 07:15:00,
2013-07-12 03:25:00,68.1,68.1,29.93,WNW,294,7.0,18.0,100,0.20,,,1.70,Wunderground v.1.15,2013-07-12 07:25:00,
2013-07-12 03:30:00,68.2,68.2,29.93,NW,305,5.0,18.0,100,0.20,,,1.72,Wunderground v.1.15,2013-07-12 07:30:00,
2013-07-12 03:35:00,68.0,68.0,29.93,WNW,290,5.0,18.0,100,0.24,,,1.74,Wunderground v.1.15,2013-07-12 07:35:00,
2013-07-12 03:40:00,67.9,67.9,29.93,WNW,300,5.0,18.0,100,0.22,,,1.76,Wunderground v.1.15,2013-07-12 07:40:00,
2013-07-12 03:50:00,67.8,67.8,29.94,NW,313,4.0,4.0,100,0.25,,,1.82,Wunderground v.1.15,2013-07-12 07:50:00,
2013-07-12 03:55:00,67.8,67.8,29.94,NW,304,3.0,18.0,100,0.22,,,1.84,Wunderground v.1.15,2013-07-12 07:55:00,
2013-07-12 04:00:00,67.8,67.8,29.94,WNW,300,3.0,18.0,100,0.19,,,1.85,Wunderground v.1.15,2013-07-12 08:00:00,
2013-07-12 04:05:00,67.8,67.8,29.94,WNW,299,3.0,18.0,100,0.16,,,1.86,Wunderground v.1.15,2013-07-12 08:05:00,
2013-07-12 04:10:00,67.7,67.7,29.94,WNW,289,3.0,18.0,100,0.14,,,1.87,Wunderground v.1.15,2013-07-12 08:10:00,
2013-07-12 04:20:00,67.6,67.6,29.94,WNW,291,1.0,1.0,100,0.12,,,1.89,Wunderground v.1.15,2013-07-12 08:20:00,
2013-07-12 04:25:00,67.5,67.5,29.94,WNW,291,1.0,2.0,100,0.11,,,1.90,Wunderground v.1.15,2013-07-12 08:25:00,
2013-07-12 04:30:00,67.4,67.4,29.94,WNW,292,2.0,2.0,100,0.11,,,1.91,Wunderground v.1.15,2013-07-12 08:30:00,
2013-07-12 04:35:00,67.3,67.3,29.94,WNW,291,2.0,18.0,100,0.16,,,1.93,Wunderground v.1.15,2013-07-12 08:35:00,
2013-07-12 04:40:00,67.4,67.4,29.93,WNW,292,1.0,18.0,100,0.18,,,1.94,Wunderground v.1.15,2013-07-12 08:40:00,
2013-07-12 04:50:00,67.4,67.4,29.94,WNW,291,0.0,18.0,100,0.14,,,1.96,Wunderground v.1.15,2013-07-12 08:50:00,
2013-07-12 04:55:00,67.4,67.4,29.94,WNW,292,0.0,18.0,100,0.13,,,1.97,Wunderground v.1.15,2013-07-12 08:55:00,
2013-07-12 05:00:00,67.3,67.3,29.94,WNW,291,1.0,1.0,100,0.08,,,1.97,Wunderground v.1.15,2013-07-12 09:00:00,
2013-07-12 05:05:00,67.2,67.2,29.94,WNW,292,1.0,18.0,100,0.05,,,1.97,Wunderground v.1.15,2013-07-12 09:05:00,
2013-07-12 05:10:00,67.1,67.1,29.94,WNW,292,1.0,18.0,100,0.00,,,1.98,Wunderground v.1.15,2013-07-12 09:10:00,
2013-07-12 05:20:00,67.1,67.1,29.95,WNW,291,1.0,1.0,100,0.00,,,1.98,Wunderground v.1.15,2013-07-12 09:20:00,
2013-07-12 05:25:00,67.1,67.1,29.95,WNW,292,1.0,18.0,100,0.00,,,1.98,Wunderground v.1.15,2013-07-12 09:25:00,
2013-07-12 05:30:00,67.1,67.1,29.95,WNW,291,0.0,18.0,100,0.00,,,1.98,Wunderground v.1.15,2013-07-12 09:30:00,
2013-07-12 05:35:00,67.1,67.1,29.94,WNW,292,1.0,18.0,100,0.00,,,1.98,Wunderground v.1.15,2013-07-12 09:35:00,
2013-07-12 05:45:00,67.1,67.1,29.94,WNW,298,2.0,18.0,100,0.00,,,1.98,Wunderground v.1.15,2013-07-12 09:45:00,
2013-07-12 05:50:00,67.1,67.1,29.94,WNW,302,2.0,2.0,100,0.00,,,1.98,Wunderground v.1.15,2013-07-12 09:50:00,
2013-07-12 05:55:00,67.0,67.0,29.95,WNW,295,2.0,18.0,100,0.00,,,1.98,Wunderground v.1.15,2013-07-12 09:55:00,
2013-07-12 06:00:00,67.0,67.0,29.96,WNW,296,1.0,18.0,100,0.00,,,1.98,Wunderground v.1.15,2013-07-12 10:00:00,
2013-07-12 06:10:00,66.9,66.9,29.95,WNW,297,1.0,1.0,100,0.00,,,1.98,Wunderground v.1.15,2013-07-12 10:10:00,
2013-07-12 06:15:00,66.9,66.9,29.95,WNW,297,0.0,18.0,100,0.00,,,1.99,Wunderground v.1.15,2013-07-12 10:15:00,
2013-07-12 06:20:00,67.0,67.0,29.95,WNW,296,0.0,18.0,100,0.00,,,1.99,Wunderground v.1.15,2013-07-12 10:20:00,
2013-07-12 06:25:00,67.0,67.0,29.95,WNW,297,0.0,18.0,100,0.00,,,1.99,Wunderground v.1.15,2013-07-12 10:25:00,
2013-07-12 06:30:00,66.9,66.9,29.96,WNW,297,0.0,18.0,100,0.00,,,1.99,Wunderground v.1.15,2013-07-12 10:30:00,
2013-07-12 06:40:00,66.7,66.7,29.96,WNW,297,1.0,1.0,100,0.00,,,2.00,Wunderground v.1.15,2013-07-12 10:40:00,
2013-07-12 06:45:00,66.7,66.7,29.96,WNW,296,0.0,18.0,100,0.05,,,2.01,Wunderground v.1.15,2013-07-12 10:45:00,
2013-07-12 06:50:00,66.6,66.6,29.96,WNW,297,0.0,18.0,100,0.05,,,2.01,Wunderground v.1.15,2013-07-12 10:50:00,
2013-07-12 06:55:00,66.7,66.7,29.96,WNW,297,0.0,18.0,100,0.05,,,2.01,Wunderground v.1.15,2013-07-12 10:55:00,
2013-07-12 07:00:00,66.7,66.7,29.97,WNW,296,0.0,18.0,100,0.04,,,2.02,Wunderground v.1.15,2013-07-12 11:00:00,
2013-07-12 07:10:00,66.7,66.7,29.97,WNW,297,0.0,18.0,100,0.06,,,2.03,Wunderground v.1.15,2013-07-12 11:10:00,
2013-07-12 07:15:00,66.7,66.7,29.97,WNW,297,0.0,18.0,100,0.06,,,2.03,Wunderground v.1.15,2013-07-12 11:15:00,
2013-07-12 07:20:00,66.7,66.7,29.97,WNW,297,0.0,18.0,100,0.06,,,2.03,Wunderground v.1.15,2013-07-12 11:20:00,
2013-07-12 07:25:00,66.7,66.7,29.97,WNW,296,0.0,18.0,100,0.04,,,2.03,Wunderground v.1.15,2013-07-12 11:25:00,
2013-07-12 07:30:00,66.7,66.7,29.97,WNW,297,1.0,18.0,100,0.00,,,2.04,Wunderground v.1.15,2013-07-12 11:30:00,
2013-07-12 07:40:00,66.7,66.7,29.97,WNW,297,0.0,18.0,100,0.07,,,2.05,Wunderground v.1.15,2013-07-12 11:40:00,
2013-07-12 07:45:00,66.7,66.7,29.97,WNW,296,1.0,18.0,100,0.07,,,2.05,Wunderground v.1.15,2013-07-12 11:45:00,
2013-07-12 07:50:00,66.7,66.7,29.97,WNW,297,0.0,18.0,100,0.07,,,2.06,Wunderground v.1.15,2013-07-12 11:50:00,
2013-07-12 08:00:00,66.7,66.7,29.97,WNW,297,1.0,1.0,100,0.06,,,2.07,Wunderground v.1.15,2013-07-12 12:00:00,
2013-07-12 08:05:00,66.6,66.6,29.97,WNW,294,1.0,2.0,100,0.06,,,2.07,Wunderground v.1.15,2013-07-12 12:05:00,
2013-07-12 08:10:00,66.6,66.6,29.98,WNW,294,1.0,1.0,100,0.04,,,2.07,Wunderground v.1.15,2013-07-12 12:10:00,
2013-07-12 08:15:00,66.7,66.7,29.98,WNW,294,1.0,18.0,100,0.00,,,2.08,Wunderground v.1.15,2013-07-12 12:15:00,
2013-07-12 08:20:00,66.7,66.7,29.98,WNW,294,0.0,18.0,100,0.00,,,2.08,Wunderground v.1.15,2013-07-12 12:20:00,
2013-07-12 08:30:00,66.9,66.9,29.98,WNW,294,0.0,18.0,100,0.05,,,2.09,Wunderground v.1.15,2013-07-12 12:30:00,
2013-07-12 08:35:00,67.0,67.0,29.97,WNW,294,0.0,18.0,100,0.05,,,2.09,Wunderground v.1.15,2013-07-12 12:35:00,
2013-07-12 08:40:00,67.1,67.1,29.97,WNW,294,0.0,18.0,100,0.04,,,2.09,Wunderground v.1.15,2013-07-12 12:40:00,
2013-07-12 08:45:00,67.1,67.1,29.97,WNW,294,0.0,18.0,100,0.00,,,2.09,Wunderground v.1.15,2013-07-12 12:45:00,
2013-07-12 08:50:00,67.1,67.1,29.97,WNW,294,0.0,18.0,100,0.00,,,2.10,Wunderground v.1.15,2013-07-12 12:50:00,
2013-07-12 09:00:00,67.2,67.2,29.97,NNE,19,0.0,18.0,100,0.00,,,2.10,Wunderground v.1.15,2013-07-12 13:00:00,
2013-07-12 09:05:00,67.1,67.1,29.97,NNE,18,0.0,18.0,100,0.00,,,2.10,Wunderground v.1.15,2013-07-12 13:05:00,
2013-07-12 09:10:00,67.1,67.1,29.97,NNE,18,0.0,18.0,100,0.00,,,2.10,Wunderground v.1.15,2013-07-12 13:10:00,
2013-07-12 09:15:00,67.0,67.0,29.96,NNE,18,0.0,18.0,100,0.00,,,2.10,Wunderground v.1.15,2013-07-12 13:15:00,
2013-07-12 09:20:00,67.0,67.0,29.96,ESE,105,0.0,18.0,100,0.00,,,2.10,Wunderground v.1.15,2013-07-12 13:20:00,
2013-07-12 09:30:00,66.9,66.9,29.96,ESE,106,1.0,1.0,100,0.00,,,2.10,Wunderground v.1.15,2013-07-12 13:30:00,
2013-07-12 09:35:00,66.9,66.9,29.96,ENE,65,1.0,18.0,100,0.00,,,2.10,Wunderground v.1.15,2013-07-12 13:35:00,
2013-07-12 09:40:00,67.0,67.0,29.97,NW,310,1.0,1.0,100,0.00,,,2.10,Wunderground v.1.15,2013-07-12 13:40:00,
2013-07-12 09:45:00,67.0,67.0,29.97,ESE,112,0.0,18.0,100,0.00,,,2.10,Wunderground v.1.15,2013-07-12 13:45:00,
2013-07-12 09:50:00,66.9,66.9,29.96,North,360,0.0,18.0,100,0.00,,,2.10,Wunderground v.1.15,2013-07-12 13:50:00,
2013-07-12 10:00:00,67.1,67.1,29.96,SE,140,0.0,18.0,100,0.00,,,2.10,Wunderground v.1.15,2013-07-12 14:00:00,
2013-07-12 10:05:00,67.1,67.1,29.96,SE,142,0.0,18.0,100,0.00,,,2.10,Wunderground v.1.15,2013-07-12 14:05:00,
2013-07-12 10:10:00,67.1,67.1,29.97,ESE,102,0.0,18.0,100,0.00,,,2.10,Wunderground v.1.15,2013-07-12 14:10:00,
2013-07-12 10:15:00,67.3,67.3,29.97,ESE,122,0.0,18.0,100,0.00,,,2.11,Wunderground v.1.15,2013-07-12 14:15:00,
2013-07-12 10:25:00,67.3,67.3,29.96,SSE,156,1.0,18.0,100,0.00,,,2.11,Wunderground v.1.15,2013-07-12 14:25:00,
2013-07-12 10:30:00,67.5,67.5,29.97,SSE,156,1.0,1.0,100,0.00,,,2.11,Wunderground v.1.15,2013-07-12 14:30:00,
2013-07-12 10:35:00,67.6,67.6,29.97,South,184,0.0,18.0,100,0.00,,,2.11,Wunderground v.1.15,2013-07-12 14:35:00,
2013-07-12 10:40:00,67.7,67.7,29.98,SSW,196,0.0,18.0,100,0.00,,,2.11,Wunderground v.1.15,2013-07-12 14:40:00,
2013-07-12 10:50:00,67.8,67.8,29.98,SSE,148,1.0,1.0,100,0.00,,,2.11,Wunderground v.1.15,2013-07-12 14:50:00,
2013-07-12 10:55:00,68.0,68.0,29.98,SSE,161,0.0,18.0,100,0.00,,,2.11,Wunderground v.1.15,2013-07-12 14:55:00,
2013-07-12 11:00:00,68.1,68.1,29.99,SSE,160,0.0,18.0,100,0.00,,,2.11,Wunderground v.1.15,2013-07-12 15:00:00,
2013-07-12 11:05:00,68.1,68.1,29.99,SSE,160,0.0,18.0,100,0.00,,,2.11,Wunderground v.1.15,2013-07-12 15:05:00,
2013-07-12 11:10:00,68.3,68.3,29.99,SSE,161,0.0,18.0,100,0.00,,,2.11,Wunderground v.1.15,2013-07-12 15:10:00,
2013-07-12 11:20:00,68.5,68.5,30.00,South,173,0.0,18.0,100,0.00,,,2.11,Wunderground v.1.15,2013-07-12 15:20:00,
2013-07-12 11:25:00,68.6,68.6,30.00,South,173,0.0,18.0,100,0.00,,,2.11,Wunderground v.1.15,2013-07-12 15:25:00,
2013-07-12 11:30:00,68.6,68.6,29.99,South,173,0.0,18.0,100,0.00,,,2.11,Wunderground v.1.15,2013-07-12 15:30:00,
2013-07-12 11:35:00,68.6,68.6,29.99,South,173,0.0,18.0,100,0.00,,,2.11,Wunderground v.1.15,2013-07-12 15:35:00,
2013-07-12 11:40:00,68.8,68.8,30.00,SW,215,0.0,18.0,100,0.00,,,2.11,Wunderground v.1.15,2013-07-12 15:40:00,
2013-07-12 11:50:00,68.7,68.7,30.00,SW,220,0.0,18.0,100,0.00,,,2.11,Wunderground v.1.15,2013-07-12 15:50:00,
2013-07-12 11:55:00,68.7,68.7,30.00,SW,220,1.0,18.0,100,0.00,,,2.11,Wunderground v.1.15,2013-07-12 15:55:00,
2013-07-12 12:00:00,68.8,68.8,30.00,SW,220,1.0,1.0,100,0.00,,,2.11,Wunderground v.1.15,2013-07-12 16:00:00,
2013-07-12 12:05:00,68.8,68.8,30.00,SW,220,0.0,18.0,100,0.00,,,2.11,Wunderground v.1.15,2013-07-12 16:05:00,
2013-07-12 12:10:00,68.9,68.9,30.00,SW,220,0.0,18.0,100,0.00,,,2.11,Wunderground v.1.15,2013-07-12 16:10:00,
2013-07-12 12:20:00,68.8,68.8,30.01,WSW,257,1.0,1.0,100,0.00,,,2.11,Wunderground v.1.15,2013-07-12 16:20:00,
2013-07-12 12:25:00,68.9,68.9,30.01,WSW,257,0.0,18.0,100,0.00,,,2.11,Wunderground v.1.15,2013-07-12 16:25:00,
2013-07-12 12:30:00,68.9,68.9,30.00,WSW,257,0.0,18.0,100,0.00,,,2.11,Wunderground v.1.15,2013-07-12 16:30:00,
2013-07-12 12:40:00,68.9,68.9,30.01,WSW,257,0.0,18.0,100,0.00,,,2.11,Wunderground v.1.15,2013-07-12 16:40:00,
2013-07-12 12:45:00,69.0,69.0,30.01,WSW,257,0.0,18.0,100,0.00,,,2.11,Wunderground v.1.15,2013-07-12 16:45:00,
2013-07-12 12:50:00,68.9,68.9,30.01,WSW,257,0.0,18.0,100,0.00,,,2.11,Wunderground v.1.15,2013-07-12 16:50:00,
2013-07-12 12:55:00,69.0,69.0,30.01,WSW,257,0.0,18.0,100,0.00,,,2.11,Wunderground v.1.15,2013-07-12 16:55:00,
2013-07-12 13:00:00,69.0,69.0,30.01,WSW,257,0.0,18.0,100,0.00,,,2.11,Wunderground v.1.15,2013-07-12 17:00:00,
2013-07-12 13:10:00,69.1,69.1,30.01,WSW,257,0.0,18.0,100,0.00,,,2.11,Wunderground v.1.15,2013-07-12 17:10:00,
2013-07-12 13:15:00,69.2,69.2,30.01,WSW,257,0.0,18.0,100,0.00,,,2.11,Wunderground v.1.15,2013-07-12 17:15:00,
2013-07-12 13:20:00,69.3,69.3,30.01,WSW,257,0.0,18.0,100,0.00,,,2.11,Wunderground v.1.15,2013-07-12 17:20:00,
2013-07-12 13:30:00,69.3,69.3,30.00,WSW,257,0.0,18.0,100,0.00,,,2.11,Wunderground v.1.15,2013-07-12 17:30:00,
2013-07-12 13:40:00,69.5,69.5,30.00,WSW,257,0.0,18.0,100,0.00,,,2.11,Wunderground v.1.15,2013-07-12 17:40:00,
2013-07-12 13:45:00,69.7,69.7,30.00,WSW,257,0.0,18.0,100,0.00,,,2.11,Wunderground v.1.15,2013-07-12 17:45:00,
2013-07-12 13:50:00,69.9,69.9,30.00,WSW,257,1.0,1.0,100,0.00,,,2.11,Wunderground v.1.15,2013-07-12 17:50:00,
2013-07-12 14:00:00,70.3,70.3,30.00,WSW,257,0.0,18.0,100,0.00,,,2.11,Wunderground v.1.15,2013-07-12 18:00:00,
2013-07-12 14:05:00,69.9,69.9,30.00,East,99,0.0,18.0,100,0.00,,,2.11,Wunderground v.1.15,2013-07-12 18:05:00,
2013-07-12 14:10:00,69.8,69.8,30.01,East,99,0.0,18.0,100,0.00,,,2.11,Wunderground v.1.15,2013-07-12 18:10:00,
2013-07-12 14:15:00,70.1,70.1,30.01,ESE,109,0.0,18.0,100,0.00,,,2.11,Wunderground v.1.15,2013-07-12 18:15:00,
2013-07-12 14:25:00,70.6,70.6,30.01,ESE,109,0.0,18.0,100,0.00,,,2.11,Wunderground v.1.15,2013-07-12 18:25:00,
2013-07-12 14:30:00,71.0,71.0,30.01,WNW,298,0.0,18.0,100,0.00,,,2.11,Wunderground v.1.15,2013-07-12 18:30:00,
2013-07-12 14:35:00,71.4,71.4,30.00,WNW,302,0.0,18.0,100,0.00,,,2.11,Wunderground v.1.15,2013-07-12 18:35:00,
2013-07-12 14:40:00,71.8,71.8,30.01,WNW,302,1.0,1.0,100,0.00,,,2.11,Wunderground v.1.15,2013-07-12 18:40:00,
2013-07-12 14:50:00,71.7,71.1,30.01,WNW,300,0.0,18.0,98,0.00,,,2.11,Wunderground v.1.15,2013-07-12 18:50:00,
2013-07-12 15:00:00,72.0,71.4,30.00,WNW,286,0.0,18.0,98,0.00,,,2.11,Wunderground v.1.15,2013-07-12 19:00:00,
2013-07-12 15:05:00,72.2,71.0,30.00,WNW,286,0.0,18.0,96,0.00,,,2.11,Wunderground v.1.15,2013-07-12 19:05:00,
2013-07-12 15:10:00,72.2,70.7,30.01,ESE,111,0.0,18.0,95,0.00,,,2.11,Wunderground v.1.15,2013-07-12 19:10:00,
2013-07-12 15:20:00,72.8,71.6,30.01,East,82,0.0,18.0,96,0.00,,,2.11,Wunderground v.1.15,2013-07-12 19:20:00,
2013-07-12 15:25:00,72.9,71.1,30.00,East,82,0.0,18.0,94,0.00,,,2.11,Wunderground v.1.15,2013-07-12 19:25:00,
2013-07-12 15:30:00,72.9,71.1,30.00,NNW,342,0.0,18.0,94,0.00,,,2.11,Wunderground v.1.15,2013-07-12 19:30:00,
2013-07-12 15:35:00,73.0,71.2,30.00,South,175,0.0,18.0,94,0.00,,,2.11,Wunderground v.1.15,2013-07-12 19:35:00,
2013-07-12 15:40:00,73.1,71.0,30.00,South,175,0.0,18.0,93,0.00,,,2.11,Wunderground v.1.15,2013-07-12 19:40:00,
2013-07-12 15:55:00,73.7,71.9,30.00,South,175,0.0,18.0,94,0.00,,,2.11,Wunderground v.1.15,2013-07-12 19:55:00,
2013-07-12 16:00:00,73.7,71.5,30.00,South,175,0.0,18.0,93,0.00,,,2.11,Wunderground v.1.15,2013-07-12 20:00:00,
2013-07-12 16:10:00,73.6,71.4,30.00,South,169,0.0,18.0,93,0.00,,,2.11,Wunderground v.1.15,2013-07-12 20:10:00,
2013-07-12 16:15:00,73.4,71.3,30.00,South,170,0.0,18.0,93,0.00,,,2.11,Wunderground v.1.15,2013-07-12 20:15:00,
2013-07-12 16:20:00,73.4,71.3,30.00,WSW,246,0.0,18.0,93,0.00,,,2.11,Wunderground v.1.15,2013-07-12 20:20:00,
2013-07-12 16:30:00,73.5,71.4,30.00,WSW,244,0.0,18.0,93,0.00,,,2.11,Wunderground v.1.15,2013-07-12 20:30:00,
2013-07-12 16:40:00,73.6,71.4,30.00,WSW,242,0.0,18.0,93,0.00,,,2.11,Wunderground v.1.15,2013-07-12 20:40:00,
2013-07-12 16:50:00,73.3,71.2,30.00,WSW,242,0.0,18.0,93,0.00,,,2.11,Wunderground v.1.15,2013-07-12 20:50:00,
2013-07-12 16:55:00,73.2,70.7,30.00,WSW,242,0.0,18.0,92,0.00,,,2.11,Wunderground v.1.15,2013-07-12 20:55:00,
2013-07-12 17:00:00,73.1,71.0,30.00,WSW,242,0.0,18.0,93,0.00,,,2.11,Wunderground v.1.15,2013-07-12 21:00:00,
2013-07-12 17:05:00,73.0,70.9,30.00,WSW,242,0.0,18.0,93,0.00,,,2.11,Wunderground v.1.15,2013-07-12 21:05:00,
2013-07-12 17:20:00,72.4,70.6,30.00,WSW,242,0.0,18.0,94,0.00,,,2.11,Wunderground v.1.15,2013-07-12 21:20:00,
2013-07-12 17:25:00,72.3,70.5,30.01,WSW,241,0.0,18.0,94,0.00,,,2.11,Wunderground v.1.15,2013-07-12 21:25:00,
2013-07-12 17:30:00,72.2,70.7,30.01,WSW,242,0.0,18.0,95,0.00,,,2.11,Wunderground v.1.15,2013-07-12 21:30:00,
2013-07-12 17:35:00,72.0,70.5,30.01,WSW,242,0.0,18.0,95,0.22,,,2.14,Wunderground v.1.15,2013-07-12 21:35:00,
2013-07-12 17:45:00,71.5,70.6,30.01,WSW,242,0.0,18.0,97,0.10,,,2.15,Wunderground v.1.15,2013-07-12 21:45:00,
2013-07-12 17:50:00,71.3,70.4,30.01,WSW,242,0.0,18.0,97,0.07,,,2.16,Wunderground v.1.15,2013-07-12 21:50:00,
2013-07-12 17:55:00,70.9,70.3,30.01,WSW,241,0.0,18.0,98,0.08,,,2.17,Wunderground v.1.15,2013-07-12 21:55:00,
2013-07-12 18:00:00,70.7,70.1,30.01,WSW,242,0.0,18.0,98,0.08,,,2.17,Wunderground v.1.15,2013-07-12 22:00:00,
2013-07-12 18:05:00,70.4,69.8,30.01,WSW,242,0.0,18.0,98,0.06,,,2.17,Wunderground v.1.15,2013-07-12 22:05:00,
2013-07-12 18:15:00,70.2,69.9,30.00,WSW,242,0.0,18.0,99,0.00,,,2.17,Wunderground v.1.15,2013-07-12 22:15:00,
2013-07-12 18:25:00,70.4,70.4,30.00,WSW,241,0.0,18.0,100,0.00,,,2.17,Wunderground v.1.15,2013-07-12 22:25:00,
2013-07-12 18:30:00,70.3,70.3,30.00,WSW,241,0.0,18.0,100,0.00,,,2.17,Wunderground v.1.15,2013-07-12 22:30:00,
2013-07-12 18:35:00,70.3,70.3,30.00,WSW,242,0.0,18.0,100,0.00,,,2.17,Wunderground v.1.15,2013-07-12 22:35:00,
2013-07-12 18:45:00,70.2,70.2,30.00,WSW,241,0.0,18.0,100,0.00,,,2.17,Wunderground v.1.15,2013-07-12 22:45:00,
2013-07-12 19:10:00,70.3,70.3,30.01,WSW,242,0.0,18.0,100,0.00,,,2.17,Wunderground v.1.15,2013-07-12 23:10:00,
2013-07-12 19:15:00,70.3,70.3,30.01,WSW,241,1.0,18.0,100,0.00,,,2.17,Wunderground v.1.15,2013-07-12 23:15:00,
2013-07-12 19:25:00,70.4,70.4,30.02,WNW,302,1.0,18.0,100,0.00,,,2.17,Wunderground v.1.15,2013-07-12 23:25:00,
2013-07-12 19:30:00,70.4,70.4,30.01,WNW,302,1.0,18.0,100,0.00,,,2.17,Wunderground v.1.15,2013-07-12 23:30:00,
2013-07-12 19:35:00,70.4,70.4,30.02,WNW,294,1.0,18.0,100,0.00,,,2.17,Wunderground v.1.15,2013-07-12 23:35:00,
2013-07-12 19:45:00,70.4,70.4,30.01,WNW,294,1.0,18.0,100,0.00,,,2.17,Wunderground v.1.15,2013-07-12 23:45:00,
2013-07-12 19:50:00,70.4,70.4,30.02,WNW,294,1.0,1.0,100,0.00,,,2.17,Wunderground v.1.15,2013-07-12 23:50:00,
2013-07-12 19:55:00,70.4,70.4,30.02,WNW,294,1.0,18.0,100,0.00,,,2.17,Wunderground v.1.15,2013-07-12 23:55:00,
2013-07-12 20:00:00,70.4,70.4,30.02,WNW,294,1.0,1.0,100,0.00,,,2.17,Wunderground v.1.15,2013-07-13 00:00:00,
2013-07-12 20:05:00,70.4,70.4,30.02,WNW,294,1.0,18.0,100,0.00,,,2.17,Wunderground v.1.15,2013-07-13 00:05:00,
2013-07-12 20:15:00,70.4,70.4,30.02,WNW,288,1.0,18.0,100,0.00,,,2.17,Wunderground v.1.15,2013-07-13 00:15:00,
2013-07-12 20:25:00,70.4,70.1,30.02,WNW,290,1.0,18.0,99,0.00,,,2.17,Wunderground v.1.15,2013-07-13 00:25:00,
2013-07-12 20:30:00,70.4,70.1,30.02,WNW,290,1.0,1.0,99,0.00,,,2.17,Wunderground v.1.15,2013-07-13 00:30:00,
2013-07-12 20:35:00,70.4,70.1,30.02,WNW,290,1.0,18.0,99,0.00,,,2.17,Wunderground v.1.15,2013-07-13 00:35:00,
2013-07-12 20:45:00,70.4,70.1,30.01,WNW,290,0.0,18.0,99,0.00,,,2.17,Wunderground v.1.15,2013-07-13 00:45:00,
2013-07-12 20:55:00,70.4,70.1,30.02,WNW,290,0.0,18.0,99,0.00,,,2.17,Wunderground v.1.15,2013-07-13 00:55:00,
2013-07-12 21:00:00,70.4,70.1,30.02,WNW,290,1.0,1.0,99,0.00,,,2.17,Wunderground v.1.15,2013-07-13 01:00:00,
2013-07-12 21:05:00,70.4,70.1,30.02,WNW,290,1.0,18.0,99,0.00,,,2.17,Wunderground v.1.15,2013-07-13 01:05:00,
2013-07-12 21:10:00,70.3,70.0,30.02,WNW,290,1.0,18.0,99,0.00,,,2.17,Wunderground v.1.15,2013-07-13 01:10:00,
2013-07-12 21:15:00,70.4,70.1,30.03,WNW,290,1.0,18.0,99,0.00,,,2.17,Wunderground v.1.15,2013-07-13 01:15:00,
2013-07-12 21:25:00,70.3,70.0,30.02,WNW,290,0.0,18.0,99,0.00,,,2.17,Wunderground v.1.15,2013-07-13 01:25:00,
2013-07-12 21:30:00,70.3,70.0,30.03,WNW,290,1.0,18.0,99,0.00,,,2.17,Wunderground v.1.15,2013-07-13 01:30:00,
2013-07-12 21:40:00,70.3,70.0,30.03,WNW,290,1.0,18.0,99,0.00,,,2.17,Wunderground v.1.15,2013-07-13 01:40:00,
2013-07-12 21:50:00,70.2,69.9,30.02,WNW,290,0.0,18.0,99,0.00,,,2.17,Wunderground v.1.15,2013-07-13 01:50:00,
2013-07-12 21:55:00,70.1,70.1,30.03,WNW,291,0.0,18.0,100,0.00,,,2.17,Wunderground v.1.15,2013-07-13 01:55:00,
2013-07-12 22:00:00,70.1,69.8,30.02,WNW,291,1.0,1.0,99,0.00,,,2.17,Wunderground v.1.15,2013-07-13 02:00:00,
2013-07-12 22:05:00,70.1,69.8,30.03,WNW,291,0.0,18.0,99,0.00,,,2.17,Wunderground v.1.15,2013-07-13 02:05:00,
2013-07-12 22:10:00,70.1,70.1,30.03,WNW,294,1.0,1.0,100,0.00,,,2.17,Wunderground v.1.15,2013-07-13 02:10:00,
2013-07-12 22:25:00,70.1,69.8,30.03,WNW,294,0.0,18.0,99,0.00,,,2.17,Wunderground v.1.15,2013-07-13 02:25:00,
2013-07-12 22:30:00,70.1,69.8,30.03,WNW,295,1.0,18.0,99,0.00,,,2.17,Wunderground v.1.15,2013-07-13 02:30:00,
2013-07-12 22:35:00,70.1,69.8,30.03,WNW,298,1.0,18.0,99,0.00,,,2.17,Wunderground v.1.15,2013-07-13 02:35:00,
2013-07-12 22:45:00,70.3,70.0,30.03,WNW,300,1.0,18.0,99,0.00,,,2.17,Wunderground v.1.15,2013-07-13 02:45:00,
2013-07-12 22:50:00,70.3,70.0,30.04,WNW,299,1.0,1.0,99,0.00,,,2.17,Wunderground v.1.15,2013-07-13 02:50:00,
2013-07-12 22:55:00,70.4,69.8,30.04,WNW,298,1.0,2.0,98,0.00,,,2.17,Wunderground v.1.15,2013-07-13 02:55:00,
2013-07-12 23:00:00,70.4,70.1,30.04,WNW,298,1.0,1.0,99,0.00,,,2.17,Wunderground v.1.15,2013-07-13 03:00:00,
2013-07-12 23:10:00,70.3,70.0,30.04,WNW,298,0.0,18.0,99,0.00,,,2.17,Wunderground v.1.15,2013-07-13 03:10:00,
2013-07-12 23:15:00,70.3,70.0,30.04,WNW,298,0.0,18.0,99,0.00,,,2.17,Wunderground v.1.15,2013-07-13 03:15:00,
2013-07-12 23:25:00,70.3,70.0,30.04,WNW,298,0.0,18.0,99,0.00,,,2.17,Wunderground v.1.15,2013-07-13 03:25:00,
2013-07-12 23:30:00,70.3,70.0,30.04,WNW,300,1.0,1.0,99,0.00,,,2.17,Wunderground v.1.15,2013-07-13 03:30:00,
2013-07-12 23:40:00,70.2,69.9,30.04,WNW,302,1.0,18.0,99,0.00,,,2.17,Wunderground v.1.15,2013-07-13 03:40:00,
2013-07-12 23:45:00,70.2,69.6,30.04,WNW,293,1.0,18.0,98,0.00,,,2.17,Wunderground v.1.15,2013-07-13 03:45:00,
2013-07-12 23:50:00,70.2,69.6,30.03,WNW,293,1.0,18.0,98,0.00,,,2.17,Wunderground v.1.15,2013-07-13 03:50:00,
2013-07-12 23:55:00,70.2,69.6,30.03,WNW,293,1.0,18.0,98,0.00,,,2.17,Wunderground v.1.15,2013-07-13 03:55:00,